createdAt,value
2017-05-08T00:00:11.685Z,55.53
2017-05-08T00:00:52.567Z,55.91
2017-05-08T00:01:33.454Z,55.82
2017-05-08T00:02:14.340Z,55.24
2017-05-08T00:02:55.230Z,55.43
2017-05-08T00:03:36.108Z,55.43
2017-05-08T00:04:16.984Z,56.01
2017-05-08T00:04:57.864Z,56.2
2017-05-08T00:05:38.769Z,55.91
2017-05-08T00:06:19.670Z,56.2
2017-05-08T00:07:00.533Z,55.72
2017-05-08T00:07:41.432Z,55.72
2017-05-08T00:08:22.306Z,55.82
2017-05-08T00:09:03.191Z,55.91
2017-05-08T00:09:44.038Z,55.24
2017-05-08T00:10:24.929Z,55.34
2017-05-08T00:11:05.817Z,55.24
2017-05-08T00:11:46.701Z,55.34
2017-05-08T00:12:27.580Z,56.01
2017-05-08T00:13:08.464Z,56.2
2017-05-08T00:13:49.364Z,55.62
2017-05-08T00:14:30.230Z,55.62
2017-05-08T00:15:11.114Z,54.55
2017-05-08T00:15:51.985Z,54.57
2017-05-08T00:16:32.869Z,55.05
2017-05-08T00:17:13.748Z,55.02
2017-05-08T00:17:54.638Z,54.83
2017-05-08T00:18:35.525Z,55.5
2017-05-08T00:19:16.413Z,55.21
2017-05-08T00:19:57.297Z,55.41
2017-05-08T00:20:38.178Z,55.41
2017-05-08T00:21:19.058Z,55.88
2017-05-08T00:21:59.953Z,56.17
2017-05-08T00:22:40.845Z,56.17
2017-05-08T00:23:21.753Z,56.36
2017-05-08T00:24:02.622Z,55.88
2017-05-08T00:24:43.518Z,56.65
2017-05-08T00:25:24.399Z,56.55
2017-05-08T00:26:05.297Z,56.65
2017-05-08T00:26:46.186Z,56.74
2017-05-08T00:27:27.073Z,57.12
2017-05-08T00:28:07.949Z,57.22
2017-05-08T00:28:48.852Z,57.22
2017-05-08T00:29:29.720Z,57.31
2017-05-08T00:30:10.611Z,57.7
2017-05-08T00:30:51.501Z,57.5
2017-05-08T00:31:32.389Z,57.31
2017-05-08T00:32:13.278Z,57.22
2017-05-08T00:32:54.176Z,57.12
2017-05-08T00:33:35.062Z,57.6
2017-05-08T00:34:15.938Z,57.22
2017-05-08T00:34:56.814Z,57.5
2017-05-08T00:35:37.696Z,57.41
2017-05-08T00:36:18.591Z,56.84
2017-05-08T00:36:59.473Z,56.65
2017-05-08T00:37:40.339Z,56.26
2017-05-08T00:38:21.216Z,56.26
2017-05-08T00:39:02.092Z,56.74
2017-05-08T00:39:42.989Z,55.88
2017-05-08T00:40:23.858Z,56.55
2017-05-08T00:41:04.730Z,56.17
2017-05-08T00:41:45.607Z,56.07
2017-05-08T00:42:26.505Z,56.07
2017-05-08T00:43:07.377Z,55.98
2017-05-08T00:43:48.258Z,56.36
2017-05-08T00:44:29.120Z,56.93
2017-05-08T00:45:10.001Z,56.93
2017-05-08T00:45:50.892Z,57.5
2017-05-08T00:46:31.780Z,58.04
2017-05-08T00:47:12.654Z,58.07
2017-05-08T00:47:53.517Z,58.07
2017-05-08T00:48:34.399Z,58.17
2017-05-08T00:49:15.287Z,58.94
2017-05-08T00:49:56.165Z,59.09
2017-05-08T00:50:37.042Z,59
2017-05-08T00:51:17.948Z,58.84
2017-05-08T00:51:58.849Z,58.81
2017-05-08T00:52:39.717Z,58.91
2017-05-08T00:53:20.601Z,58.62
2017-05-08T00:54:01.494Z,58.94
2017-05-08T00:54:42.384Z,59.09
2017-05-08T00:55:23.259Z,59.09
2017-05-08T00:56:04.136Z,59
2017-05-08T00:56:45.026Z,58.72
2017-05-08T00:57:25.905Z,58.14
2017-05-08T00:58:06.789Z,58.43
2017-05-08T00:58:47.657Z,58.52
2017-05-08T00:59:28.536Z,59.19
2017-05-08T01:00:09.447Z,59.19
2017-05-08T01:00:50.322Z,59.57
2017-05-08T01:01:31.207Z,59.57
2017-05-08T01:02:12.095Z,59.95
2017-05-08T01:02:52.986Z,60.43
2017-05-08T01:03:33.877Z,60.72
2017-05-08T01:04:14.769Z,60.91
2017-05-08T01:04:55.670Z,61.38
2017-05-08T01:05:36.584Z,61.38
2017-05-08T01:06:17.443Z,61.38
2017-05-08T01:06:58.325Z,62.05
2017-05-08T01:07:39.197Z,61.76
2017-05-08T01:08:20.105Z,61.57
2017-05-08T01:09:00.997Z,61.67
2017-05-08T01:09:41.871Z,61.48
2017-05-08T01:10:22.731Z,61.19
2017-05-08T01:11:03.601Z,60.91
2017-05-08T01:11:44.482Z,60.81
2017-05-08T01:12:25.364Z,60.81
2017-05-08T01:13:06.249Z,60.81
2017-05-08T01:13:47.126Z,60.81
2017-05-08T01:14:28.013Z,60.84
2017-05-08T01:15:08.902Z,60.75
2017-05-08T01:15:49.799Z,61.04
2017-05-08T01:16:30.668Z,61.41
2017-05-08T01:17:11.562Z,60.81
2017-05-08T01:17:52.454Z,60.91
2017-05-08T01:18:33.334Z,61.04
2017-05-08T01:19:14.209Z,61.48
2017-05-08T01:19:55.091Z,61.32
2017-05-08T01:20:35.985Z,61.89
2017-05-08T01:21:16.872Z,61.7
2017-05-08T01:21:57.765Z,61.57
2017-05-08T01:22:38.649Z,61.41
2017-05-08T01:23:19.545Z,61.89
2017-05-08T01:24:00.416Z,61.99
2017-05-08T01:24:41.290Z,62.37
2017-05-08T01:25:22.197Z,62.27
2017-05-08T01:26:03.070Z,62.46
2017-05-08T01:26:43.964Z,63.04
2017-05-08T01:27:24.842Z,62.94
2017-05-08T01:28:05.744Z,62.94
2017-05-08T01:28:46.642Z,63.13
2017-05-08T01:29:27.529Z,63.32
2017-05-08T01:30:08.420Z,62.46
2017-05-08T01:30:49.317Z,62.94
2017-05-08T01:31:30.198Z,63.04
2017-05-08T01:32:11.100Z,63.6
2017-05-08T01:32:51.964Z,63.51
2017-05-08T01:33:32.849Z,64.09
2017-05-08T01:34:13.762Z,63.99
2017-05-08T01:34:54.622Z,64.09
2017-05-08T01:35:35.499Z,62.75
2017-05-08T01:36:16.380Z,62.56
2017-05-08T01:36:57.272Z,62.37
2017-05-08T01:37:38.164Z,62.08
2017-05-08T01:38:19.033Z,61.8
2017-05-08T01:38:59.927Z,61.51
2017-05-08T01:39:40.807Z,61.89
2017-05-08T01:40:21.696Z,61.41
2017-05-08T01:41:02.562Z,61.8
2017-05-08T01:41:43.460Z,62.08
2017-05-08T01:42:24.329Z,62.46
2017-05-08T01:43:05.229Z,62.94
2017-05-08T01:43:46.097Z,63.6
2017-05-08T01:44:26.963Z,62.94
2017-05-08T01:45:07.844Z,62.18
2017-05-08T01:45:48.732Z,61.51
2017-05-08T01:46:29.617Z,62.18
2017-05-08T01:47:10.490Z,61.41
2017-05-08T01:47:51.368Z,60.46
2017-05-08T01:48:32.247Z,60.27
2017-05-08T01:49:13.154Z,60.08
2017-05-08T01:49:54.020Z,59.6
2017-05-08T01:50:34.910Z,59.89
2017-05-08T01:51:15.800Z,60.46
2017-05-08T01:51:56.696Z,60.94
2017-05-08T01:52:37.591Z,61.51
2017-05-08T01:53:18.485Z,60.84
2017-05-08T01:53:59.373Z,60.65
2017-05-08T01:54:40.253Z,60.84
2017-05-08T01:55:21.136Z,61.13
2017-05-08T01:56:02.020Z,61.22
2017-05-08T01:56:42.904Z,61.51
2017-05-08T01:57:23.870Z,61.99
2017-05-08T01:58:04.756Z,61.41
2017-05-08T01:58:45.660Z,60.75
2017-05-08T01:59:26.537Z,60.75
2017-05-08T02:00:07.425Z,61.41
2017-05-08T02:00:48.359Z,60.75
2017-05-08T02:01:29.232Z,60.75
2017-05-08T02:02:10.121Z,60.36
2017-05-08T02:02:51.006Z,60.84
2017-05-08T02:03:31.896Z,60.84
2017-05-08T02:04:12.774Z,60.55
2017-05-08T02:04:53.665Z,60.65
2017-05-08T02:05:34.547Z,60.75
2017-05-08T02:06:15.433Z,60.46
2017-05-08T02:06:56.325Z,59.7
2017-05-08T02:07:37.203Z,59.6
2017-05-08T02:08:18.086Z,59.31
2017-05-08T02:08:58.969Z,59.03
2017-05-08T02:09:39.844Z,58.94
2017-05-08T02:10:20.732Z,58.94
2017-05-08T02:11:01.611Z,58.94
2017-05-08T02:11:42.494Z,59.12
2017-05-08T02:12:23.367Z,59.03
2017-05-08T02:13:04.256Z,58.84
2017-05-08T02:13:45.144Z,58.84
2017-05-08T02:14:26.019Z,59.12
2017-05-08T02:15:06.888Z,59.22
2017-05-08T02:15:47.766Z,59.12
2017-05-08T02:16:28.653Z,59.12
2017-05-08T02:17:09.541Z,58.94
2017-05-08T02:17:50.405Z,59.12
2017-05-08T02:18:31.282Z,58.84
2017-05-08T02:19:12.169Z,59.03
2017-05-08T02:19:53.046Z,58.84
2017-05-08T02:20:33.931Z,59.41
2017-05-08T02:21:14.812Z,59.31
2017-05-08T02:21:55.698Z,59.79
2017-05-08T02:22:36.598Z,59.7
2017-05-08T02:23:17.482Z,59.89
2017-05-08T02:23:58.392Z,59.6
2017-05-08T02:24:39.276Z,59.7
2017-05-08T02:25:20.156Z,59.79
2017-05-08T02:26:01.045Z,60.27
2017-05-08T02:26:41.934Z,60.46
2017-05-08T02:27:22.815Z,60.75
2017-05-08T02:28:03.698Z,60.52
2017-05-08T02:28:44.580Z,61
2017-05-08T02:29:25.470Z,60.43
2017-05-08T02:30:06.370Z,61.19
2017-05-08T02:30:47.251Z,61.96
2017-05-08T02:31:28.134Z,61.76
2017-05-08T02:32:09.027Z,62.24
2017-05-08T02:32:49.911Z,63
2017-05-08T02:33:30.792Z,63.29
2017-05-08T02:34:11.675Z,62.91
2017-05-08T02:34:52.570Z,63.2
2017-05-08T02:35:33.446Z,63
2017-05-08T02:36:14.327Z,63.1
2017-05-08T02:36:55.212Z,63.29
2017-05-08T02:37:36.091Z,63.2
2017-05-08T02:38:16.975Z,63.2
2017-05-08T02:38:58.495Z,63.29
2017-05-08T02:39:39.370Z,63.29
2017-05-08T02:40:20.258Z,63.29
2017-05-08T02:41:01.122Z,63.67
2017-05-08T02:41:42.007Z,63.48
2017-05-08T02:42:22.883Z,63.96
2017-05-08T02:43:03.785Z,63.96
2017-05-08T02:43:44.650Z,64.43
2017-05-08T02:44:25.539Z,65
2017-05-08T02:45:06.434Z,65.1
2017-05-08T02:45:47.331Z,65
2017-05-08T02:46:28.209Z,65.39
2017-05-08T02:47:09.093Z,64.43
2017-05-08T02:47:49.975Z,65
2017-05-08T02:48:30.857Z,64.81
2017-05-08T02:49:11.742Z,64.43
2017-05-08T02:49:52.630Z,64.72
2017-05-08T02:50:33.524Z,65.2
2017-05-08T02:51:14.395Z,65.58
2017-05-08T02:51:55.285Z,65.58
2017-05-08T02:52:36.168Z,65.96
2017-05-08T02:53:17.045Z,65.77
2017-05-08T02:53:57.923Z,65.67
2017-05-08T02:54:38.809Z,65.77
2017-05-08T02:55:19.699Z,65.86
2017-05-08T02:56:00.584Z,65.86
2017-05-08T02:56:41.469Z,65.96
2017-05-08T02:57:22.342Z,66.15
2017-05-08T02:58:03.229Z,65.86
2017-05-08T02:58:44.111Z,66.53
2017-05-08T02:59:25.001Z,66.53
2017-05-08T03:00:05.887Z,66.82
2017-05-08T03:00:46.781Z,67.1
2017-05-08T03:01:27.694Z,67.1
2017-05-08T03:02:08.582Z,67.86
2017-05-08T03:02:49.466Z,68.15
2017-05-08T03:04:22.693Z,67.96
2017-05-08T03:05:03.571Z,68.44
2017-05-08T03:05:44.461Z,68.15
2017-05-08T03:06:25.349Z,68.05
2017-05-08T03:07:06.231Z,68.05
2017-05-08T03:07:47.121Z,68.15
2017-05-08T03:08:27.996Z,68.15
2017-05-08T03:09:08.880Z,67.77
2017-05-08T03:09:49.764Z,67.29
2017-05-08T03:10:30.629Z,67.1
2017-05-08T03:11:11.509Z,67.2
2017-05-08T03:11:52.389Z,67.48
2017-05-08T03:12:33.277Z,67.86
2017-05-08T03:13:14.144Z,67.86
2017-05-08T03:13:55.039Z,68.44
2017-05-08T03:14:35.923Z,68.53
2017-05-08T03:15:16.811Z,69.01
2017-05-08T03:15:57.690Z,68.82
2017-05-08T03:16:38.581Z,68.24
2017-05-08T03:17:19.474Z,68.34
2017-05-08T03:18:00.367Z,67.68
2017-05-08T03:18:41.246Z,66.34
2017-05-08T03:19:22.132Z,65.77
2017-05-08T03:20:03.016Z,65.86
2017-05-08T03:20:43.891Z,66.82
2017-05-08T03:21:24.788Z,66.05
2017-05-08T03:22:05.678Z,65.96
2017-05-08T03:22:46.567Z,65.58
2017-05-08T03:23:27.464Z,64.62
2017-05-08T03:24:08.341Z,64.15
2017-05-08T03:24:49.224Z,63.48
2017-05-08T03:25:30.108Z,63.1
2017-05-08T03:26:11.001Z,62.91
2017-05-08T03:26:51.889Z,62.72
2017-05-08T03:27:32.757Z,63.29
2017-05-08T03:28:13.636Z,63.67
2017-05-08T03:28:54.529Z,63.76
2017-05-08T03:29:35.407Z,63.96
2017-05-08T03:30:16.292Z,64.53
2017-05-08T03:30:57.161Z,64.91
2017-05-08T03:31:38.032Z,64.62
2017-05-08T03:32:18.916Z,65.1
2017-05-08T03:32:59.801Z,65
2017-05-08T03:33:40.687Z,65.39
2017-05-08T03:34:21.564Z,65.39
2017-05-08T03:35:02.426Z,65.39
2017-05-08T03:35:43.292Z,66.15
2017-05-08T03:36:24.165Z,65.39
2017-05-08T03:37:05.059Z,65.48
2017-05-08T03:37:45.951Z,65.39
2017-05-08T03:38:26.843Z,65
2017-05-08T03:39:07.725Z,64.72
2017-05-08T03:39:48.622Z,64.91
2017-05-08T03:40:29.510Z,64.72
2017-05-08T03:41:10.410Z,64.72
2017-05-08T03:41:51.286Z,64.62
2017-05-08T03:42:32.190Z,64.62
2017-05-08T03:43:13.078Z,64.37
2017-05-08T03:43:53.986Z,64.15
2017-05-08T03:44:34.837Z,64.75
2017-05-08T03:45:15.708Z,64.47
2017-05-08T03:45:56.588Z,64.28
2017-05-08T03:46:37.459Z,64.47
2017-05-08T03:47:18.350Z,64.37
2017-05-08T03:47:59.224Z,63.99
2017-05-08T03:48:40.098Z,63.7
2017-05-08T03:49:20.979Z,63.23
2017-05-08T03:50:01.858Z,63.23
2017-05-08T03:50:42.741Z,63.04
2017-05-08T03:51:23.609Z,62.94
2017-05-08T03:52:04.498Z,62.08
2017-05-08T03:52:45.369Z,62.18
2017-05-08T03:53:26.248Z,62.18
2017-05-08T03:54:07.126Z,62.37
2017-05-08T03:54:48.006Z,62.94
2017-05-08T03:55:28.886Z,63.51
2017-05-08T03:56:09.771Z,64.09
2017-05-08T03:56:50.655Z,63.6
2017-05-08T03:57:31.553Z,63.51
2017-05-08T03:58:12.418Z,63.42
2017-05-08T03:58:53.307Z,63.6
2017-05-08T03:59:34.187Z,63.6
2017-05-08T04:00:15.073Z,63.6
2017-05-08T04:00:56.847Z,64.18
2017-05-08T04:01:37.251Z,64.09
2017-05-08T04:02:18.594Z,64.09
2017-05-08T04:02:59.476Z,63.89
2017-05-08T04:03:40.372Z,63.99
2017-05-08T04:04:21.241Z,63.99
2017-05-08T04:05:02.154Z,64.47
2017-05-08T04:05:43.007Z,64.37
2017-05-08T04:06:23.893Z,64.37
2017-05-08T04:07:04.767Z,64.37
2017-05-08T04:07:45.648Z,64.75
2017-05-08T04:08:26.565Z,64.94
2017-05-08T04:09:07.451Z,64.47
2017-05-08T04:09:48.338Z,64.37
2017-05-08T04:10:29.210Z,64.65
2017-05-08T04:11:10.572Z,64.47
2017-05-08T04:11:51.450Z,64.09
2017-05-08T04:12:32.294Z,63.89
2017-05-08T04:13:13.168Z,64.28
2017-05-08T04:13:54.037Z,63.51
2017-05-08T04:14:34.927Z,63.51
2017-05-08T04:15:15.808Z,64.09
2017-05-08T04:15:56.680Z,64.28
2017-05-08T04:16:37.578Z,64.18
2017-05-08T04:17:18.429Z,63.8
2017-05-08T04:17:59.316Z,64.28
2017-05-08T04:18:40.173Z,64.09
2017-05-08T04:19:21.070Z,63.51
2017-05-08T04:20:01.934Z,63.8
2017-05-08T04:20:42.833Z,63.99
2017-05-08T04:21:23.713Z,63.89
2017-05-08T04:22:04.575Z,64.09
2017-05-08T04:22:45.478Z,63.32
2017-05-08T04:23:26.350Z,63.8
2017-05-08T04:24:07.225Z,63.6
2017-05-08T04:24:48.098Z,63.7
2017-05-08T04:25:28.981Z,63.6
2017-05-08T04:26:09.868Z,63.51
2017-05-08T04:26:50.766Z,63.8
2017-05-08T04:27:31.652Z,63.99
2017-05-08T04:28:12.533Z,64.09
2017-05-08T04:28:53.415Z,63.32
2017-05-08T04:29:34.328Z,63.6
2017-05-08T04:30:15.195Z,63.51
2017-05-08T04:30:56.075Z,63.42
2017-05-08T04:31:36.959Z,63.32
2017-05-08T04:32:17.842Z,63.23
2017-05-08T04:32:58.718Z,63.13
2017-05-08T04:34:33.031Z,63.6
2017-05-08T04:35:13.902Z,63.13
2017-05-08T04:35:54.759Z,63.13
2017-05-08T04:36:35.644Z,63.32
2017-05-08T04:37:16.531Z,63.32
2017-05-08T04:37:57.442Z,62.65
2017-05-08T04:38:38.348Z,62.94
2017-05-08T04:39:19.220Z,63.04
2017-05-08T04:40:00.091Z,62.94
2017-05-08T04:40:40.962Z,62.37
2017-05-08T04:41:21.852Z,62.27
2017-05-08T04:42:02.730Z,62.65
2017-05-08T04:42:43.593Z,62.27
2017-05-08T04:43:24.437Z,62.65
2017-05-08T04:44:05.313Z,62.75
2017-05-08T04:44:46.180Z,62.84
2017-05-08T04:45:27.040Z,62.84
2017-05-08T04:46:07.925Z,62.27
2017-05-08T04:46:48.796Z,62.27
2017-05-08T04:47:29.674Z,61.7
2017-05-08T04:48:10.542Z,62.18
2017-05-08T04:48:51.382Z,61.99
2017-05-08T04:49:32.249Z,62.08
2017-05-08T04:50:13.108Z,61.89
2017-05-08T04:50:54.008Z,61.8
2017-05-08T04:51:34.854Z,62.18
2017-05-08T04:52:15.734Z,61.8
2017-05-08T04:52:56.636Z,61.6
2017-05-08T04:53:37.497Z,61.7
2017-05-08T04:54:18.335Z,61.41
2017-05-08T04:54:59.188Z,61.51
2017-05-08T04:55:40.069Z,61.99
2017-05-08T04:56:20.930Z,61.8
2017-05-08T04:57:01.798Z,61.22
2017-05-08T04:57:42.657Z,61.41
2017-05-08T04:58:23.517Z,61.22
2017-05-08T04:59:04.392Z,61.51
2017-05-08T04:59:45.265Z,61.13
2017-05-08T05:00:26.149Z,60.94
2017-05-08T05:01:07.031Z,61.13
2017-05-08T05:01:47.895Z,61.32
2017-05-08T05:02:28.768Z,61.04
2017-05-08T05:03:09.640Z,61.22
2017-05-08T05:03:50.519Z,61.04
2017-05-08T05:04:31.404Z,60.46
2017-05-08T05:05:12.274Z,60.36
2017-05-08T05:05:53.159Z,60.55
2017-05-08T05:06:34.036Z,60.75
2017-05-08T05:07:14.931Z,61.04
2017-05-08T05:07:56.699Z,60.84
2017-05-08T05:08:37.584Z,60.65
2017-05-08T05:09:18.448Z,60.75
2017-05-08T05:09:59.336Z,60.27
2017-05-08T05:10:40.222Z,60.08
2017-05-08T05:11:23.610Z,59.6
2017-05-08T05:12:04.490Z,59.12
2017-05-08T05:12:45.367Z,58.55
2017-05-08T05:13:26.279Z,58.36
2017-05-08T05:14:07.141Z,58.46
2017-05-08T05:14:48.023Z,58.17
2017-05-08T05:15:28.905Z,58.84
2017-05-08T05:16:09.813Z,58.84
2017-05-08T05:16:50.699Z,59.03
2017-05-08T05:17:31.637Z,58.65
2017-05-08T05:18:12.550Z,59.03
2017-05-08T05:18:53.426Z,59.03
2017-05-08T05:19:34.300Z,58.55
2017-05-08T05:20:15.194Z,58.75
2017-05-08T05:20:56.050Z,58.65
2017-05-08T05:21:36.962Z,58.46
2017-05-08T05:22:17.833Z,58.94
2017-05-08T05:22:58.708Z,59.7
2017-05-08T05:23:39.588Z,59.7
2017-05-08T05:24:20.491Z,60.36
2017-05-08T05:25:01.516Z,60.75
2017-05-08T05:25:42.408Z,60.65
2017-05-08T05:26:23.285Z,61.13
2017-05-08T05:27:04.166Z,61.41
2017-05-08T05:27:45.070Z,61.8
2017-05-08T05:28:25.941Z,62.56
2017-05-08T05:29:06.824Z,62.46
2017-05-08T05:29:47.712Z,62.37
2017-05-08T05:30:28.594Z,62.94
2017-05-08T05:31:09.478Z,62.84
2017-05-08T05:31:50.373Z,62.56
2017-05-08T05:32:31.245Z,61.7
2017-05-08T05:33:12.136Z,61.7
2017-05-08T05:33:53.028Z,61.04
2017-05-08T05:34:33.891Z,60.75
2017-05-08T05:35:14.792Z,60.27
2017-05-08T05:35:55.657Z,60.75
2017-05-08T05:36:36.539Z,60.65
2017-05-08T05:37:17.427Z,61.04
2017-05-08T05:37:58.306Z,60.84
2017-05-08T05:38:39.187Z,60.08
2017-05-08T05:39:20.072Z,60.27
2017-05-08T05:40:00.920Z,60.55
2017-05-08T05:40:41.813Z,60.65
2017-05-08T05:41:22.673Z,60.55
2017-05-08T05:42:03.557Z,60.65
2017-05-08T05:42:44.436Z,60.75
2017-05-08T05:43:25.323Z,60.75
2017-05-08T05:44:06.208Z,60.84
2017-05-08T05:44:47.080Z,60.84
2017-05-08T05:45:27.977Z,60.75
2017-05-08T05:46:08.835Z,61.13
2017-05-08T05:46:49.714Z,61.41
2017-05-08T05:47:30.622Z,60.75
2017-05-08T05:48:11.508Z,61.04
2017-05-08T05:48:52.395Z,60.75
2017-05-08T05:49:33.250Z,61.04
2017-05-08T05:50:14.152Z,61.22
2017-05-08T05:50:55.030Z,61.32
2017-05-08T05:51:35.905Z,61.7
2017-05-08T05:52:16.789Z,61.8
2017-05-08T05:52:57.670Z,62.18
2017-05-08T05:53:38.526Z,62.46
2017-05-08T05:54:19.411Z,62.46
2017-05-08T05:55:00.341Z,62.37
2017-05-08T05:55:41.230Z,62.18
2017-05-08T05:56:22.135Z,62.37
2017-05-08T05:57:03.000Z,62.94
2017-05-08T05:57:43.885Z,63.23
2017-05-08T05:58:24.767Z,63.13
2017-05-08T05:59:20.618Z,63.42
2017-05-08T06:00:01.508Z,63.99
2017-05-08T06:00:42.389Z,64.62
2017-05-08T06:01:23.278Z,64.62
2017-05-08T06:02:04.158Z,65.1
2017-05-08T06:02:45.039Z,65.1
2017-05-08T06:04:20.751Z,65.29
2017-05-08T06:05:01.696Z,65.13
2017-05-08T06:05:42.578Z,64.94
2017-05-08T06:07:35.946Z,64.65
2017-05-08T06:09:49.715Z,64.28
2017-05-08T06:10:30.604Z,64.15
2017-05-08T06:12:13.950Z,64.62
2017-05-08T06:12:54.832Z,64.62
2017-05-08T06:13:38.303Z,64.62
2017-05-08T06:14:19.188Z,64.43
2017-05-08T06:15:00.095Z,64.62
2017-05-08T06:15:40.979Z,64.43
2017-05-08T06:17:54.713Z,64.75
2017-05-08T06:19:48.159Z,65.2
2017-05-08T06:20:29.049Z,65.13
2017-05-08T06:22:22.425Z,65.33
2017-05-08T06:24:19.953Z,65.61
2017-05-08T06:24:53.245Z,65.61
2017-05-08T06:25:34.127Z,65.33
2017-05-08T06:26:15.013Z,65.13
2017-05-08T06:26:55.912Z,64.75
2017-05-08T06:27:36.783Z,64.75
2017-05-08T06:28:17.657Z,64.65
2017-05-08T06:28:58.546Z,64.37
2017-05-08T06:29:39.432Z,64.56
2017-05-08T06:30:28.470Z,64.47
2017-05-08T06:31:09.361Z,64.47
2017-05-08T06:31:50.239Z,64.94
2017-05-08T06:32:31.129Z,65.33
2017-05-08T06:33:12.844Z,64.85
2017-05-08T06:34:08.497Z,64.65
2017-05-08T06:34:49.374Z,64.56
2017-05-08T06:35:37.274Z,64.56
2017-05-08T06:36:18.156Z,64.47
2017-05-08T06:36:59.041Z,64.37
2017-05-08T06:37:39.929Z,64.18
2017-05-08T06:38:23.364Z,64.37
2017-05-08T06:39:04.248Z,64.28
2017-05-08T06:39:47.768Z,64.37
2017-05-08T06:40:28.654Z,64.56
2017-05-08T06:41:09.544Z,64.28
2017-05-08T06:41:50.424Z,64.18
2017-05-08T06:44:09.387Z,64.78
2017-05-08T06:44:50.271Z,64.59
2017-05-08T06:45:36.508Z,64.78
2017-05-08T06:46:17.469Z,64.94
2017-05-08T06:46:58.355Z,64.94
2017-05-08T06:47:39.259Z,64.59
2017-05-08T06:48:25.832Z,64.78
2017-05-08T06:49:06.712Z,64.56
2017-05-08T06:49:47.596Z,64.47
2017-05-08T06:50:28.483Z,64.47
2017-05-08T06:51:20.877Z,64.5
2017-05-08T06:52:01.769Z,64.37
2017-05-08T06:52:42.652Z,65.13
2017-05-08T06:53:23.532Z,65.17
2017-05-08T06:54:04.416Z,65.33
2017-05-08T06:54:55.955Z,65.89
2017-05-08T06:55:36.839Z,66.09
2017-05-08T06:57:15.321Z,66.18
2017-05-08T06:57:56.201Z,66.09
2017-05-08T06:58:37.079Z,66.94
2017-05-08T07:00:30.491Z,66.98
2017-05-08T07:01:22.366Z,67.17
2017-05-08T07:02:03.248Z,66.98
2017-05-08T07:02:44.154Z,67.07
2017-05-08T07:03:27.406Z,68.12
2017-05-08T07:04:08.302Z,68.03
2017-05-08T07:04:49.218Z,68.32
2017-05-08T07:05:30.088Z,67.65
2017-05-08T07:06:10.979Z,68.51
2017-05-08T07:07:04.874Z,68.79
2017-05-08T07:07:45.744Z,68.32
2017-05-08T07:08:26.628Z,68.51
2017-05-08T07:09:07.500Z,69.04
2017-05-08T07:09:50.013Z,68.47
2017-05-08T07:10:30.896Z,68.98
2017-05-08T07:11:11.991Z,68.51
2017-05-08T07:11:52.864Z,68.6
2017-05-08T07:12:33.835Z,69.46
2017-05-08T07:13:14.724Z,69.27
2017-05-08T07:13:55.615Z,68.98
2017-05-08T07:14:36.502Z,68.6
2017-05-08T07:15:17.415Z,69.17
2017-05-08T07:15:58.299Z,69.27
2017-05-08T07:16:39.169Z,68.32
2017-05-08T07:17:22.372Z,68.51
2017-05-08T07:18:03.249Z,68.6
2017-05-08T07:21:41.056Z,67.87
2017-05-08T07:22:21.949Z,68.06
2017-05-08T07:23:02.812Z,67.87
2017-05-08T07:23:43.697Z,67.77
2017-05-08T07:24:24.588Z,68.06
2017-05-08T07:25:05.472Z,68.16
2017-05-08T07:25:46.374Z,68.35
2017-05-08T07:26:27.245Z,67.68
2017-05-08T07:27:08.404Z,68.26
2017-05-08T07:27:55.837Z,67.87
2017-05-08T07:28:36.723Z,68.35
2017-05-08T07:29:17.611Z,68.54
2017-05-08T07:29:58.492Z,69.4
2017-05-08T07:30:39.380Z,69.11
2017-05-08T07:31:20.258Z,70.16
2017-05-08T07:32:01.147Z,70.45
2017-05-08T07:32:42.029Z,70.64
2017-05-08T07:33:22.910Z,70.92
2017-05-08T07:34:03.792Z,73.75
2017-05-08T07:34:44.703Z,75.37
2017-05-08T07:35:25.566Z,76.33
2017-05-08T07:36:06.496Z,77.19
2017-05-08T07:36:47.378Z,76.81
2017-05-08T07:37:28.258Z,77.09
2017-05-08T07:38:09.148Z,78.43
2017-05-08T07:39:57.381Z,80.53
2017-05-08T07:40:38.262Z,82.68
2017-05-08T07:41:22.268Z,84.4
2017-05-08T07:42:03.153Z,85.06
2017-05-08T07:42:44.039Z,86.69
2017-05-08T07:43:24.947Z,86.83
2017-05-08T07:45:13.186Z,88.02
2017-05-08T07:45:54.068Z,89.03
2017-05-08T07:46:34.952Z,89.64
2017-05-08T07:48:33.476Z,90.22
2017-05-08T07:49:14.364Z,91.88
2017-05-08T07:50:10.171Z,91.88
2017-05-08T07:50:51.051Z,92.74
2017-05-08T07:51:31.930Z,92.55
2017-05-08T07:52:12.809Z,92.93
2017-05-08T07:52:53.706Z,93.79
2017-05-08T07:53:34.599Z,93.88
2017-05-08T07:54:15.489Z,94.56
2017-05-08T07:54:56.373Z,94.56
2017-05-08T07:55:37.265Z,94.74
2017-05-08T07:56:32.813Z,95.03
2017-05-08T07:57:13.698Z,94.93
2017-05-08T07:59:27.477Z,97.13
2017-05-08T08:01:25.985Z,96.36
2017-05-08T08:02:06.866Z,96.46
2017-05-08T08:03:15.058Z,96.94
2017-05-08T08:03:55.955Z,96.84
2017-05-08T08:07:18.356Z,99.41
2017-05-08T08:22:07.461Z,99.99
2017-05-08T08:22:48.375Z,99.99
2017-05-08T08:23:29.256Z,99.99
2017-05-08T08:24:10.145Z,99.99
2017-05-08T08:24:51.031Z,99.99
2017-05-08T08:25:31.911Z,99.99
2017-05-08T08:26:12.790Z,99.99
2017-05-08T08:29:33.857Z,99.99
2017-05-08T08:31:18.118Z,99.99
2017-05-08T08:31:59.006Z,99.99
2017-05-08T08:32:39.888Z,99.99
2017-05-08T08:33:20.773Z,99.99
2017-05-08T08:34:09.465Z,99.99
2017-05-08T08:34:50.340Z,99.99
2017-05-08T08:35:31.215Z,99.99
2017-05-08T08:36:12.108Z,99.99
2017-05-08T08:36:53.000Z,99.99
2017-05-08T08:37:33.869Z,99.99
2017-05-08T08:38:14.735Z,99.99
2017-05-08T08:38:55.626Z,99.99
2017-05-08T08:39:36.508Z,99.99
2017-05-08T08:40:17.387Z,99.99
2017-05-08T08:40:58.264Z,99.99
2017-05-08T08:41:39.144Z,99.99
2017-05-08T08:42:20.022Z,99.99
2017-05-08T08:43:00.910Z,99.99
2017-05-08T08:43:41.781Z,99.99
2017-05-08T08:44:22.649Z,99.99
2017-05-08T08:45:03.531Z,99.99
2017-05-08T08:45:44.410Z,99.99
2017-05-08T08:46:25.301Z,99.99
2017-05-08T08:47:06.171Z,99.99
2017-05-08T08:47:47.048Z,99.99
2017-05-08T08:48:27.934Z,99.99
2017-05-08T08:49:08.814Z,99.99
2017-05-08T08:49:49.710Z,99.99
2017-05-08T08:50:30.597Z,99.99
2017-05-08T08:51:11.490Z,99.99
2017-05-08T08:51:52.382Z,99.99
2017-05-08T08:52:33.268Z,99.99
2017-05-08T08:53:14.145Z,99.99
2017-05-08T08:53:55.071Z,99.99
2017-05-08T08:54:35.964Z,99.99
2017-05-08T08:55:16.932Z,99.99
2017-05-08T08:55:57.806Z,99.99
2017-05-08T08:56:38.696Z,99.99
2017-05-08T08:57:19.589Z,99.99
2017-05-08T08:58:00.482Z,99.99
2017-05-08T08:58:41.368Z,99.99
2017-05-08T08:59:22.259Z,99.99
2017-05-08T09:00:03.151Z,99.99
2017-05-08T09:00:44.034Z,99.99
2017-05-08T09:01:39.623Z,99.99
2017-05-08T09:02:20.524Z,99.99
2017-05-08T09:03:01.398Z,99.99
2017-05-08T09:03:42.294Z,99.99
2017-05-08T09:04:23.176Z,99.99
2017-05-08T09:05:04.054Z,99.99
2017-05-08T09:05:44.929Z,99.99
2017-05-08T09:06:25.825Z,99.99
2017-05-08T09:07:06.710Z,99.99
2017-05-08T09:07:47.587Z,99.99
2017-05-08T09:08:28.468Z,99.99
2017-05-08T09:09:09.359Z,99.99
2017-05-08T09:09:50.242Z,99.99
2017-05-08T09:10:31.120Z,99.99
2017-05-08T09:11:14.922Z,99.99
2017-05-08T09:11:55.796Z,99.99
2017-05-08T09:12:36.691Z,99.99
2017-05-08T09:14:30.058Z,99.99
2017-05-08T09:15:10.938Z,99.99
2017-05-08T09:15:52.107Z,99.99
2017-05-08T09:16:32.977Z,99.99
2017-05-08T09:17:13.859Z,99.99
2017-05-08T09:17:54.728Z,99.99
2017-05-08T09:18:35.608Z,99.99
2017-05-08T09:19:16.494Z,99.99
2017-05-08T09:19:57.380Z,99.99
2017-05-08T09:20:38.262Z,99.99
2017-05-08T09:21:21.918Z,99.99
2017-05-08T09:22:02.796Z,99.99
2017-05-08T09:22:43.827Z,99.99
2017-05-08T09:24:12.889Z,99.99
2017-05-08T09:24:53.800Z,99.94
2017-05-08T09:25:34.784Z,99.94
2017-05-08T09:26:15.658Z,99.46
2017-05-08T09:26:56.547Z,98.7
2017-05-08T09:27:37.427Z,98.51
2017-05-08T09:28:18.320Z,97.46
2017-05-08T09:28:59.199Z,97.61
2017-05-08T09:29:40.092Z,97.8
2017-05-08T09:30:20.968Z,97.22
2017-05-08T09:31:16.754Z,96.36
2017-05-08T09:31:57.648Z,97.03
2017-05-08T09:32:38.567Z,96.56
2017-05-08T09:33:19.452Z,97.61
2017-05-08T09:35:34.226Z,96.75
2017-05-08T09:36:15.103Z,96.27
2017-05-08T09:36:56.074Z,96.56
2017-05-08T09:37:36.955Z,97.32
2017-05-08T09:38:17.933Z,96.6
2017-05-08T09:38:58.801Z,97.32
2017-05-08T09:39:39.684Z,96.84
2017-05-08T09:40:20.564Z,97.03
2017-05-08T09:41:01.446Z,97.32